Etusivu
METAR-TAF:

METAR-TAF

Lentoasemat :

Florø, Norja

Leveyspiiri: 61-35N, Pituuspiiri: 005-02E, korkeus merenpinnasta: 0 m

Tämänhetkinen sää

Tämä raportti tehtiin 28 minuuttia sitten, kello 07.20 UTC
Tuuli 5 kn idästä
Lämpötila 1°C
Kosteus 80%
Ilmanpaine 1037 hPa
Näkyvyys 10 km tai enemmän

METAR: ENFL 250720Z AUTO 10005KT 9999NDV NCD 01/M02 Q1037

Aika: 08:48 (07:48 UTC)

Sääennuste

Tämä raportti tehtiin 23 tuntia ja 48 minuuttia sitten, kello 08.00 UTC
Ennuste voimassa 24. päivästä klo 09 UTC - 24. päivään klo 14 UTC
Tuuli 12 kn idästä/kaakosta
Näkyvyys 10 km tai enemmän
Muutamia pilviä 3000 ft:n korkeudessa
Hajonneita pilviä 6000 ft:n korkeudessa

TAF: ENFL 240800Z 2409/2414 12012KT 9999 FEW030 BKN060

Säähavainnot ja -ennusteet yli 4000 lentoasemalta (METAR- ja TAF-raportit).

Käytössä olevat sääasemat on merkitty karttaan keltaisilla ja punaisilla pisteillä.

Aseta hiiri pisteen päälle nähdäksesi sääaseman nimen.

Klikkaa sitten nähdäksesi säähavainnot ja -ennusteet.

Kartan vaihtaminen: klikkaa mustalla rastilla varustettuja vihreitä pisteitä, niin voit zoomata sisään; viivalla varustettua vihreää pistettä, niin voit zoomata ulos tai vihreitä nuolia, niin pääset viereisille kartoille.


METAR-TAF: